LOWS/SZG METAR and TAF weather

Enter ICAO airport designator
Station Type Date Time Source
LOWS METAR 2020/01/24 21:20 UTC NOAA

LOWS 242120Z VRB02KT CAVOK M02/M03 Q1023 NOSIG


Station Type Date Time Source
LOWS Decoded METAR 2020/01/24 21:20 UTC NOAA

Salzburg-Flughafen, Austria (LOWS) 47-48N 013-00E 450M
Jan 24, 2020 - 04:20 PM EST / 2020.01.24 2120 UTC
Wind: Variable at 2 MPH (2 KT):0
Visibility: greater than 7 mile(s):0
Temperature: 28 F (-2 C)
Dew Point: 26 F (-3 C)
Relative Humidity: 92%
Pressure (altimeter): 30.21 in. Hg (1023 hPa)
ob: LOWS 242120Z VRB02KT CAVOK M02/M03 Q1023 NOSIG
cycle: 21

Station Type Date Time Source
LOWS TAF 2020/01/24 18:21 UTC NOAA

TAF LOWS 241715Z 2418/2518 15005KT CAVOK TX05/2513Z TNM03/2501Z
TEMPO 2418/2508 VRB02KT 2500 BR FEW003 PROB30
TEMPO 2500/2507 0300 FZFG VV003
BECMG 2509/2511 01005KT
BECMG 2516/2518 15005KT

Example: see airport list